Tuesday, January 17, 2017, 3:49 AM EST

KTHV, York Airport

Location: Spring Grove, PA, United States Lat: 39.917
Local Time: 3:49 AM EST ( 8:49 GMT) Lon: -76.883
Time Zone: US/Eastern Elev: 478 ft

Show me the last for .
Show Decoded

2017-01-17 02:53 METAR KTHV 170753Z AUTO 00000KT 6SM BR OVC014 02/01 A3023 RMK AO2 SLP245
                 T00170006 =
2017-01-17 02:16 METAR KTHV 170716Z AUTO 00000KT 5SM BR BKN016 BKN055 OVC075 02/01 A3024 RMK AO2
                 T00220011 =
2017-01-17 02:01 METAR KTHV 170701Z AUTO 00000KT 4SM BR SCT016 BKN055 OVC075 02/02 A3024 RMK AO2
                 T00170017 =
2017-01-17 01:53 METAR KTHV 170653Z AUTO 00000KT 5SM BR BKN016 BKN060 OVC070 02/01 A3024 RMK AO2
                 SLP246 T00170011 =
2017-01-17 00:53 METAR KTHV 170553Z AUTO 00000KT 5SM BR BKN017 OVC030 02/02 A3025 RMK AO2 RAE06
                 SLP250 P0000 60000 T00220017 10028 20017 58020 =
2017-01-16 23:53 METAR KTHV 170453Z AUTO 00000KT 6SM -RA BR BKN017 BKN030 OVC070 02/01 A3028 RMK
                 AO2 RAB30 SLP259 P0000 T00220011 400281078 =
2017-01-16 22:53 METAR KTHV 170353Z AUTO 00000KT 8SM OVC017 02/00 A3029 RMK AO2 SLP264 T00220000
                 =
2017-01-16 21:53 METAR KTHV 170253Z AUTO 00000KT 7SM OVC020 02/00 A3031 RMK AO2 SLP271 60000
                 T00170000 58008 =
2017-01-16 20:53 METAR KTHV 170153Z AUTO 00000KT 9SM OVC027 02/M01 A3032 RMK AO2 SLP277 T00221006
                 =
2017-01-16 20:10 METAR KTHV 170110Z AUTO 00000KT 9SM OVC029 02/M01 A3032 RMK AO2 T00221006 =
2017-01-16 19:53 METAR KTHV 170053Z AUTO 00000KT 9SM OVC033 02/M01 A3032 RMK AO2 RAB15E34UPB34E44
                 SLP277 P0000 T00221006 =
2017-01-16 18:53 METAR KTHV 162353Z AUTO 00000KT 10SM OVC050 02/M02 A3033 RMK AO2 SLP281
                 T00221017 10028 20011 58009 =
2017-01-16 17:53 METAR KTHV 162253Z AUTO 00000KT 10SM BKN050 OVC060 02/M02 A3034 RMK AO2 SLP284
                 T00221017 =
2017-01-16 16:53 METAR KTHV 162153Z AUTO 00000KT 10SM SCT075 OVC110 03/M02 A3035 RMK AO2 SLP287
                 T00281022 =
2017-01-16 15:53 METAR KTHV 162053Z AUTO 00000KT 10SM OVC080 03/M02 A3036 RMK AO2 SLP288
                 T00281022 55009 =
2017-01-16 15:17 METAR KTHV 162017Z AUTO 00000KT 9SM SCT028 OVC080 03/M02 A3036 RMK AO2 T00281022
                 =
2017-01-16 15:03 METAR KTHV 162003Z AUTO 00000KT 9SM BKN028 OVC085 03/M02 A3036 RMK AO2 T00281022
                 =
2017-01-16 14:53 METAR KTHV 161953Z AUTO 00000KT 9SM SCT028 OVC085 02/M02 A3036 RMK AO2 SLP288
                 T00221022 =
2017-01-16 14:17 METAR KTHV 161917Z AUTO 00000KT 7SM FEW021 OVC095 02/M03 A3035 RMK AO2 T00221028
                 =
2017-01-16 13:53 METAR KTHV 161853Z AUTO 00000KT 7SM OVC019 02/M02 A3036 RMK AO2 SLP290 T00221022
                 =
2017-01-16 12:53 METAR KTHV 161753Z AUTO 00000KT 7SM OVC019 01/M03 A3039 RMK AO2 SLP298 I6000
                 T00111028 10011 21078 58022 =
2017-01-16 11:53 METAR KTHV 161653Z AUTO 00000KT 8SM OVC023 01/M03 A3043 RMK AO2 SLP312 T00061028
                 =
2017-01-16 10:53 METAR KTHV 161553Z AUTO 00000KT 5SM HZ OVC025 00/M03 A3045 RMK AO2 SLP321
                 T00001028 =
2017-01-16 09:53 METAR KTHV 161453Z AUTO 00000KT 4SM BR OVC029 M02/M03 A3045 RMK AO2 SLP321 I3000
                 T10171033 50002 =
2017-01-16 09:39 METAR KTHV 161439Z AUTO 00000KT 4SM BR OVC029 M02/M03 A3045 RMK AO2 T10221033 =
2017-01-16 08:53 METAR KTHV 161353Z AUTO 00000KT 5SM BR BKN032 M04/M04 A3046 RMK AO2 SLP323
                 T10391044 =
2017-01-16 07:53 METAR KTHV 161253Z AUTO 00000KT 4SM BR BKN033 M07/M08 A3045 RMK AO2 SLP321 I1000
                 T10721078 =
2017-01-16 06:53 METAR KTHV 161153Z AUTO 00000KT 6SM BR SCT033 M07/M08 A3045 RMK AO2 SLP320 I1000
                 I6000 T10671078 11061 21078 53007 =
2017-01-16 05:53 METAR KTHV 161053Z AUTO 00000KT 7SM FEW033 M07/M07 A3043 RMK AO2 SLP316
                 T10671067 =
2017-01-16 04:53 METAR KTHV 160953Z AUTO 00000KT 7SM BKN034 M07/M07 A3043 RMK AO2 SLP315 I1000
                 T10671072 =
2017-01-16 03:53 METAR KTHV 160853Z AUTO 00000KT 7SM CLR M07/M08 A3042 RMK AO2 SLP311 I1000 I3000
                 T10671078 50005 =

Support USWX by starting your Amazon purchase here.